Time;durP1;ratioP1;P1;durP2;ratioP2;P2;SDS_P1;SDS_P2;PMS_P1;PMS_P2;Temp;Humidity;BMP_temperature;BMP_pressure;BME280_temperature;BME280_humidity;BME280_pressure;Samples;Min_cycle;Max_cycle;Signal;HPM_P1;HPM_P2
2022/04/28 13:08:51;;;;;;;8.40;7.40;;;;;;;12.90;83.48;101563.11;104406;1282;601061;-77
2022/04/28 13:11:28;;;;;;;10.90;7.60;;;;;;;12.80;83.94;101561.11;106095;1263;61110;-75
2022/04/28 13:14:00;;;;;;;12.40;7.30;;;;;;;12.65;85.32;101557.45;105685;1266;61882;-74
2022/04/28 13:16:31;;;;;;;9.10;7.50;;;;;;;12.65;84.55;101562.55;106915;1256;72404;-75
2022/04/28 13:19:00;;;;;;;11.50;7.70;;;;;;;12.63;84.34;101565.30;106715;1257;69565;-76
2022/04/28 13:21:29;;;;;;;10.90;7.30;;;;;;;12.55;84.23;101563.23;106817;1253;348103;-77
2022/04/28 13:23:59;;;;;;;10.20;7.30;;;;;;;12.56;84.72;101568.58;107164;1256;71661;-76
2022/04/28 13:26:30;;;;;;;7.80;6.00;;;;;;;12.56;84.54;101568.56;107115;1253;61679;-78
2022/04/28 13:28:59;;;;;;;9.30;7.10;;;;;;;12.52;84.60;101572.48;107232;1253;60335;-77
2022/04/28 13:31:28;;;;;;;8.00;6.50;;;;;;;12.42;84.15;101572.77;107454;1254;68806;-75
2022/04/28 13:33:58;;;;;;;11.90;7.60;;;;;;;12.39;84.18;101573.17;106859;1255;70550;-74
2022/04/28 13:36:27;;;;;;;10.50;6.80;;;;;;;12.37;84.61;101573.64;107103;1253;70436;-77
2022/04/28 13:38:57;;;;;;;9.30;6.90;;;;;;;12.34;84.41;101576.64;107150;1253;72023;-74
2022/04/28 13:41:30;;;;;;;8.50;6.70;;;;;;;12.33;85.11;101580.41;107042;1253;62257;-75
2022/04/28 13:43:59;;;;;;;10.20;6.90;;;;;;;12.35;84.80;101585.27;107132;1254;60338;-77
2022/04/28 13:46:28;;;;;;;9.70;6.90;;;;;;;12.31;84.43;101582.97;107208;1253;73328;-76
2022/04/28 13:48:57;;;;;;;9.00;6.80;;;;;;;12.29;84.93;101592.17;107195;1254;69600;-77
2022/04/28 13:51:26;;;;;;;8.90;6.80;;;;;;;12.24;85.47;101578.02;107054;1253;70615;-75
2022/04/28 13:53:54;;;;;;;9.50;7.00;;;;;;;12.30;85.20;101592.25;107294;1253;74683;-76
2022/04/28 13:56:24;;;;;;;11.60;7.10;;;;;;;12.25;84.93;101590.66;107156;1253;60812;-77
2022/04/28 13:58:53;;;;;;;8.90;6.80;;;;;;;12.17;85.42;101597.48;107024;1254;58952;-77
2022/04/28 14:01:21;;;;;;;9.70;7.80;;;;;;;12.18;85.52;101596.53;107135;1253;72841;-78
2022/04/28 14:03:52;;;;;;;10.40;7.30;;;;;;;12.12;85.54;101597.30;107508;1254;71778;-79
2022/04/28 14:06:20;;;;;;;11.10;8.20;;;;;;;12.09;86.05;101602.39;107260;1253;71317;-78
2022/04/28 14:08:49;;;;;;;13.10;8.30;;;;;;;12.11;86.32;101602.11;107812;1249;73023;-80
2022/04/28 14:11:18;;;;;;;9.80;7.50;;;;;;;12.10;85.94;101602.50;107673;1247;60557;-79
2022/04/28 14:13:48;;;;;;;10.80;7.80;;;;;;;12.09;85.47;101605.88;107759;1248;59745;-79
2022/04/28 14:16:17;;;;;;;11.90;8.10;;;;;;;12.07;86.47;101601.09;107943;1247;73113;-78
2022/04/28 14:18:46;;;;;;;12.80;8.90;;;;;;;12.05;86.76;101599.66;107847;1247;72988;-81
2022/04/28 14:21:14;;;;;;;14.10;9.20;;;;;;;12.03;86.50;101601.36;107924;1247;70888;-78
2022/04/28 14:23:43;;;;;;;12.00;9.40;;;;;;;11.98;87.19;101601.91;107979;1247;71921;-79
2022/04/28 14:26:12;;;;;;;12.70;9.40;;;;;;;11.90;87.48;101601.66;107709;1249;61278;-78
2022/04/28 14:28:42;;;;;;;15.20;11.40;;;;;;;11.92;87.27;101600.32;107570;1250;60118;-77
2022/04/28 14:31:11;;;;;;;12.40;9.40;;;;;;;11.94;87.61;101600.16;107666;1247;72669;-76
2022/04/28 14:33:58;;;;;;;13.90;9.90;;;;;;;11.94;88.08;101599.84;107585;1247;70298;-77
2022/04/28 14:36:27;;;;;;;10.60;8.90;;;;;;;11.93;87.63;101594.34;107656;1247;70654;-75
2022/04/28 14:38:55;;;;;;;11.30;8.50;;;;;;;11.87;87.97;101596.26;107562;1249;74285;-74
2022/04/28 14:41:29;;;;;;;15.00;9.00;;;;;;;11.86;88.29;101591.48;107625;1247;61366;-75
2022/04/28 14:44:01;;;;;;;9.90;8.70;;;;;;;11.84;88.69;101591.77;107645;1247;60831;-78
2022/04/28 14:46:30;;;;;;;13.00;8.50;;;;;;;11.86;88.75;101587.25;107914;1247;71772;-75
2022/04/28 14:54:33;;;;;;;11.50;9.00;;;;;;;11.88;88.74;101585.04;107585;1247;71172;-76
2022/04/28 14:57:03;;;;;;;24.10;15.30;;;;;;;11.84;89.20;101586.70;107602;1247;62899;-75
2022/04/28 14:59:33;;;;;;;10.90;8.40;;;;;;;11.85;88.69;101593.44;107577;1247;58956;-77
2022/04/28 15:02:04;;;;;;;11.10;7.90;;;;;;;11.86;88.67;101596.16;107635;1247;71892;-77
2022/04/28 15:04:33;;;;;;;12.40;8.60;;;;;;;11.87;88.43;101589.45;107415;1247;72731;-75
2022/04/28 15:07:02;;;;;;;9.90;8.40;;;;;;;11.85;88.69;101585.73;107459;1247;68494;-74
2022/04/28 15:09:32;;;;;;;10.30;7.90;;;;;;;11.86;88.91;101583.40;107511;1247;71574;-76
2022/04/28 15:12:03;;;;;;;10.40;7.90;;;;;;;11.81;88.73;101582.89;107722;1247;60481;-80
2022/04/28 15:14:33;;;;;;;9.90;6.90;;;;;;;11.80;88.75;101583.44;107633;1247;61286;-75
2022/04/28 15:17:04;;;;;;;10.20;6.80;;;;;;;11.79;88.38;101583.32;107613;1246;70582;-74
2022/04/28 15:19:34;;;;;;;9.80;7.30;;;;;;;11.79;88.17;101584.56;107666;1247;69904;-75
2022/04/28 15:22:05;;;;;;;9.70;6.90;;;;;;;11.83;88.21;101582.76;107421;1247;70590;-73
2022/04/28 15:24:35;;;;;;;9.10;6.90;;;;;;;11.73;87.52;101581.95;107234;1247;74476;-74
2022/04/28 15:27:04;;;;;;;8.30;6.10;;;;;;;11.76;87.35;101586.65;107527;1247;60880;-76
2022/04/28 15:29:33;;;;;;;7.40;6.40;;;;;;;11.69;87.48;101588.13;108026;1248;59699;-77
2022/04/28 15:32:03;;;;;;;7.50;6.60;;;;;;;11.70;87.42;101592.10;107691;1247;70942;-77
2022/04/28 15:34:33;;;;;;;8.60;7.20;;;;;;;11.73;87.55;101590.84;107459;1250;70366;-78
2022/04/28 15:37:06;;;;;;;10.20;8.10;;;;;;;11.71;87.92;101589.63;107668;1248;70011;-79
2022/04/28 15:39:36;;;;;;;9.90;6.70;;;;;;;11.69;87.63;101586.75;107922;1247;73963;-76
2022/04/28 15:42:05;;;;;;;8.00;6.90;;;;;;;11.66;87.40;101586.06;107524;1247;63349;-77
2022/04/28 15:44:34;;;;;;;9.10;6.70;;;;;;;11.71;87.35;101592.06;107536;1247;60963;-77
2022/04/28 15:47:03;;;;;;;8.60;6.40;;;;;;;11.72;87.73;101587.81;107769;1247;71408;-77
2022/04/28 15:49:32;;;;;;;9.20;6.40;;;;;;;11.71;87.46;101590.31;107805;1247;69636;-78
2022/04/28 15:52:02;;;;;;;8.10;6.80;;;;;;;11.69;87.26;101589.56;107698;1247;67888;-78
2022/04/28 15:54:30;;;;;;;8.20;6.80;;;;;;;11.69;87.68;101588.85;108142;1247;73076;-76
2022/04/28 15:57:02;;;;;;;10.00;6.90;;;;;;;11.76;87.43;101593.79;107750;1247;63459;-77
2022/04/28 15:59:31;;;;;;;9.20;6.50;;;;;;;11.77;87.45;101590.45;107957;1247;60958;-77
2022/04/28 16:02:00;;;;;;;8.20;7.30;;;;;;;11.77;87.61;101591.64;107717;1247;72214;-74
2022/04/28 16:04:30;;;;;;;10.70;7.30;;;;;;;11.81;87.73;101592.48;107498;1247;72747;-76
2022/04/28 16:06:58;;;;;;;7.30;6.10;;;;;;;11.80;87.07;101587.63;108080;1247;70885;-74
2022/04/28 16:09:27;;;;;;;8.70;6.90;;;;;;;11.79;87.25;101588.95;109170;1247;71802;-75
2022/04/28 16:11:56;;;;;;;6.90;5.90;;;;;;;11.77;87.70;101595.83;109099;1246;60522;-77
2022/04/28 16:14:25;;;;;;;8.60;6.40;;;;;;;11.78;87.51;101597.54;108388;1241;60143;-77
2022/04/28 16:16:54;;;;;;;8.90;6.90;;;;;;;11.79;87.51;101593.80;107630;1248;70868;-75
2022/04/28 16:19:31;;;;;;;8.40;6.70;;;;;;;11.82;87.60;101598.36;107559;1250;69917;-77
2022/04/28 16:22:01;;;;;;;11.50;7.00;;;;;;;11.81;87.52;101599.27;107061;1250;70428;-76
2022/04/28 16:24:31;;;;;;;9.10;6.90;;;;;;;11.80;88.06;101600.03;107186;1248;73138;-76
2022/04/28 16:27:00;;;;;;;10.00;6.30;;;;;;;11.82;87.85;101603.59;108006;1247;63598;-74
2022/04/28 16:29:29;;;;;;;8.90;7.00;;;;;;;11.78;87.39;101601.04;107920;1247;61736;-78
2022/04/28 16:31:58;;;;;;;7.70;6.60;;;;;;;11.73;87.40;101601.15;107388;1251;72379;-75
2022/04/28 16:34:33;;;;;;;20.60;13.20;;;;;;;11.64;87.39;101600.45;107380;1250;72010;-75
2022/04/28 16:37:05;;;;;;;11.60;8.60;;;;;;;11.59;87.51;101603.09;107390;1250;68952;-77
2022/04/28 16:39:35;;;;;;;8.90;7.20;;;;;;;11.58;88.13;101605.78;107525;1247;73332;-76
2022/04/28 16:42:05;;;;;;;12.10;7.80;;;;;;;11.59;88.41;101608.65;107214;1250;60399;-78
2022/04/28 16:44:34;;;;;;;10.30;7.70;;;;;;;11.57;88.28;101611.06;107826;1247;59678;-76
2022/04/28 16:47:03;;;;;;;10.00;8.40;;;;;;;11.56;87.98;101609.04;107565;1248;72531;-75
2022/04/28 16:49:32;;;;;;;10.10;7.80;;;;;;;11.51;88.22;101608.80;107577;1248;70578;-74
2022/04/28 16:52:01;;;;;;;9.60;7.80;;;;;;;11.53;88.14;101614.28;107382;1250;67917;-76
2022/04/28 16:54:30;;;;;;;9.10;7.50;;;;;;;11.48;87.56;101612.67;107572;1247;71296;-75
2022/04/28 16:56:59;;;;;;;9.30;7.30;;;;;;;11.47;87.61;101615.33;107601;1248;60539;-75
2022/04/28 16:59:28;;;;;;;8.70;7.40;;;;;;;11.45;87.59;101615.47;107081;1248;59768;-74
2022/04/28 17:01:58;;;;;;;11.70;8.30;;;;;;;11.40;87.97;101617.50;107749;1247;70960;-77
2022/04/28 17:04:31;;;;;;;12.60;8.30;;;;;;;11.33;88.01;101625.45;107700;1248;70646;-78
2022/04/28 17:07:07;;;;;;;10.70;8.00;;;;;;;11.30;88.14;101629.13;107880;1248;68572;-77
2022/04/28 17:09:38;;;;;;;10.50;7.70;;;;;;;11.33;88.52;101632.25;107537;1247;73926;-78
2022/04/28 17:12:10;;;;;;;9.10;7.10;;;;;;;11.32;88.02;101634.36;107633;1250;61658;-79
2022/04/28 17:14:38;;;;;;;13.30;10.90;;;;;;;11.30;88.26;101635.55;107736;1247;60547;-78
2022/04/28 17:17:08;;;;;;;9.90;7.20;;;;;;;11.30;88.27;101636.63;107607;1249;70667;-78
2022/04/28 17:19:40;;;;;;;9.20;6.80;;;;;;;11.19;88.60;101636.96;107569;1250;70352;-77
2022/04/28 17:22:16;;;;;;;9.80;8.20;;;;;;;11.22;88.53;101639.55;107521;1248;69798;-76
2022/04/28 17:24:45;;;;;;;7.80;6.50;;;;;;;11.22;88.65;101640.24;107810;1247;74961;-77
2022/04/28 17:27:14;;;;;;;12.60;9.60;;;;;;;11.21;88.57;101645.71;107680;1247;61420;-76
2022/04/28 17:29:43;;;;;;;10.10;7.60;;;;;;;11.23;88.59;101648.39;107249;1248;60399;-77
2022/04/28 17:32:13;;;;;;;9.80;7.30;;;;;;;11.22;88.68;101654.02;107292;1248;75096;-75
2022/04/28 17:34:45;;;;;;;10.70;6.50;;;;;;;11.22;88.75;101656.95;107495;1250;70724;-77
2022/04/28 17:37:15;;;;;;;7.50;6.70;;;;;;;11.18;88.81;101660.52;107459;1249;67899;-74
2022/04/28 17:39:44;;;;;;;8.60;6.10;;;;;;;11.17;88.86;101663.02;107291;1250;73550;-78
2022/04/28 17:42:12;;;;;;;9.20;6.60;;;;;;;11.13;89.13;101667.99;107579;1248;62316;-76
2022/04/28 17:44:41;;;;;;;9.00;6.90;;;;;;;11.06;89.52;101670.11;107442;1250;59546;-76
2022/04/28 17:47:16;;;;;;;8.80;7.50;;;;;;;11.10;89.78;101674.08;107268;1250;73891;-78
2022/04/28 17:49:45;;;;;;;8.20;6.30;;;;;;;11.10;89.90;101678.27;107531;1247;71636;-78
2022/04/28 17:52:14;;;;;;;7.60;6.60;;;;;;;11.13;89.66;101678.61;108257;1248;69441;-80
2022/04/28 17:59:52;;;;;;;8.00;6.20;;;;;;;11.12;89.42;101683.89;108561;1247;72841;-80
2022/04/28 18:00:21;;;;;;;7.90;6.10;;;;;;;11.09;89.45;101688.23;108506;1243;60545;-77
2022/04/28 18:02:50;;;;;;;7.40;6.30;;;;;;;11.09;89.70;101690.86;107109;1252;74086;-76
2022/04/28 18:05:19;;;;;;;7.50;6.40;;;;;;;11.14;89.53;101693.88;107386;1253;70853;-76
2022/04/28 18:07:48;;;;;;;7.40;6.20;;;;;;;11.18;89.40;101698.35;107262;1251;69999;-78
2022/04/28 18:10:18;;;;;;;8.00;6.20;;;;;;;11.12;88.77;101698.19;106967;1252;75020;-75
2022/04/28 18:12:47;;;;;;;9.10;6.80;;;;;;;11.13;88.91;101702.65;107170;1251;64839;-75
2022/04/28 18:15:16;;;;;;;8.60;7.20;;;;;;;11.07;89.13;101702.86;106997;1252;60147;-75
2022/04/28 18:17:44;;;;;;;7.50;6.40;;;;;;;11.04;88.93;101708.10;107088;1251;74064;-75
2022/04/28 18:20:15;;;;;;;9.50;6.60;;;;;;;11.03;88.67;101710.39;107262;1252;73825;-76
2022/04/28 18:22:45;;;;;;;8.20;6.70;;;;;;;10.99;88.95;101709.27;107358;1252;70455;-78
2022/04/28 18:25:14;;;;;;;8.00;7.10;;;;;;;10.98;88.78;101710.02;107005;1254;72514;-76
2022/04/28 18:27:43;;;;;;;8.60;7.40;;;;;;;10.98;88.80;101709.30;107170;1251;62976;-79
2022/04/28 18:30:12;;;;;;;8.90;7.20;;;;;;;10.96;89.29;101709.79;107696;1251;62113;-75
2022/04/28 18:32:41;;;;;;;10.10;7.70;;;;;;;10.97;88.91;101711.98;106958;1252;72922;-74
2022/04/28 18:35:15;;;;;;;10.30;7.50;;;;;;;10.91;89.52;101711.79;107143;1252;71361;-78
2022/04/28 18:46:08;;;;;;;8.10;6.70;;;;;;;10.73;89.61;101721.39;107179;1251;60923;-79
2022/04/28 18:48:39;;;;;;;7.20;6.40;;;;;;;10.71;89.72;101724.98;107017;1252;71402;-80
2022/04/28 18:51:10;;;;;;;9.20;7.00;;;;;;;10.71;89.61;101722.03;107179;1252;72382;-80
2022/04/28 18:53:39;;;;;;;7.10;6.00;;;;;;;10.73;89.17;101726.42;107448;1253;70468;-79
2022/04/28 18:56:08;;;;;;;8.70;7.00;;;;;;;10.74;88.84;101727.96;107084;1253;73828;-77
2022/04/28 18:58:37;;;;;;;7.10;5.90;;;;;;;10.67;88.81;101734.08;107301;1253;63486;-79
2022/04/28 19:01:06;;;;;;;7.40;6.20;;;;;;;10.70;88.73;101736.53;107550;1252;60077;-74
2022/04/28 19:03:35;;;;;;;7.80;6.50;;;;;;;10.73;88.45;101736.68;107430;1251;71629;-73
2022/04/28 19:06:05;;;;;;;8.60;7.00;;;;;;;10.70;88.57;101738.42;107319;1253;71458;-75
2022/04/28 19:08:34;;;;;;;7.60;6.50;;;;;;;10.68;88.49;101740.80;107608;1251;71344;-75
2022/04/28 19:11:03;;;;;;;8.10;6.90;;;;;;;10.68;88.36;101741.37;107198;1252;74999;-76
2022/04/28 19:13:32;;;;;;;8.80;7.10;;;;;;;10.70;88.08;101745.38;107506;1252;63406;-74
2022/04/28 19:16:01;;;;;;;8.20;5.70;;;;;;;10.69;88.08;101747.91;107403;1252;61830;-76
2022/04/28 19:18:30;;;;;;;8.30;6.60;;;;;;;10.61;88.24;101746.08;107340;1252;72291;-77
2022/04/28 19:21:00;;;;;;;8.10;6.00;;;;;;;10.55;88.23;101748.18;107482;1252;70290;-76
2022/04/28 19:23:29;;;;;;;7.50;5.70;;;;;;;10.52;88.47;101749.39;107339;1253;68774;-78
2022/04/28 19:25:58;;;;;;;7.60;6.00;;;;;;;10.45;88.63;101753.60;107252;1251;73538;-76
2022/04/28 19:28:27;;;;;;;6.00;5.20;;;;;;;10.45;88.50;101754.64;107130;1253;61220;-76
2022/04/28 19:30:56;;;;;;;9.80;5.60;;;;;;;10.39;89.21;101760.93;107234;1252;59138;-77
2022/04/28 19:33:26;;;;;;;7.60;5.20;;;;;;;10.36;89.01;101765.41;107315;1253;73978;-74
2022/04/28 19:35:56;;;;;;;6.50;4.90;;;;;;;10.25;89.42;101769.31;107234;1252;73092;-78
2022/04/28 19:38:26;;;;;;;7.00;5.30;;;;;;;10.24;89.51;101774.95;107277;1252;71274;-78
2022/04/28 19:40:54;;;;;;;6.90;4.90;;;;;;;10.22;89.31;101776.76;107332;1253;74819;-74
2022/04/28 19:43:25;;;;;;;6.20;5.10;;;;;;;10.21;89.62;101778.73;107322;1251;62935;-77
2022/04/28 19:45:54;;;;;;;6.00;5.10;;;;;;;10.15;90.50;101782.54;107332;1251;62169;-76
2022/04/28 19:48:23;;;;;;;7.10;5.70;;;;;;;10.12;90.47;101785.52;107239;1253;72176;-75
2022/04/28 19:50:54;;;;;;;8.10;5.40;;;;;;;10.13;90.22;101781.93;107279;1251;70871;-76
2022/04/28 19:53:23;;;;;;;7.20;5.80;;;;;;;10.16;90.51;101782.84;107544;1252;69276;-75
2022/04/28 19:55:52;;;;;;;6.10;5.20;;;;;;;10.13;90.56;101779.35;107500;1252;74457;-75
2022/04/28 19:58:20;;;;;;;5.90;4.70;;;;;;;10.12;90.63;101783.38;107656;1252;62632;-77
2022/04/28 20:00:49;;;;;;;6.50;5.00;;;;;;;10.09;90.83;101788.05;107644;1253;59683;-75
2022/04/28 20:03:18;;;;;;;5.50;4.50;;;;;;;10.01;90.78;101793.21;107240;1253;71336;-77
2022/04/28 20:05:47;;;;;;;6.50;5.10;;;;;;;10.02;91.03;101794.87;107505;1253;70762;-73
2022/04/28 20:08:16;;;;;;;6.50;4.70;;;;;;;10.07;90.95;101796.73;107477;1251;70207;-74
2022/04/28 20:10:45;;;;;;;7.20;5.10;;;;;;;10.06;91.23;101798.17;107423;1253;74337;-74
2022/04/28 20:13:14;;;;;;;7.30;5.10;;;;;;;10.01;91.07;101796.33;107430;1253;62792;-75
2022/04/28 20:15:46;;;;;;;6.50;4.70;;;;;;;10.06;91.28;101795.20;107269;1253;61850;-74
2022/04/28 20:18:16;;;;;;;6.90;5.30;;;;;;;10.01;90.82;101797.02;107307;1251;73464;-75
2022/04/28 20:20:45;;;;;;;6.90;5.40;;;;;;;10.03;90.93;101795.17;107320;1251;70725;-75
2022/04/28 20:23:15;;;;;;;6.20;4.60;;;;;;;9.97;91.26;101799.52;107022;1254;69002;-74
2022/04/28 20:25:45;;;;;;;5.90;4.90;;;;;;;9.94;91.40;101800.16;106991;1253;73966;-75
2022/04/28 20:28:14;;;;;;;5.90;5.00;;;;;;;9.96;91.18;101803.93;107218;1253;61498;-74
2022/04/28 20:30:42;;;;;;;6.10;4.60;;;;;;;9.90;91.32;101805.77;107027;1251;61564;-78
2022/04/28 20:33:12;;;;;;;11.20;5.00;;;;;;;9.92;91.46;101808.46;107291;1251;73091;-74
2022/04/28 20:35:41;;;;;;;6.00;4.60;;;;;;;9.88;91.40;101808.84;107360;1253;72278;-74
2022/04/28 20:38:10;;;;;;;6.00;4.60;;;;;;;9.89;91.47;101812.29;107267;1253;70388;-75
2022/04/28 20:40:41;;;;;;;6.60;4.80;;;;;;;9.87;92.05;101818.48;107039;1254;71201;-74
2022/04/28 20:43:10;;;;;;;11.00;7.90;;;;;;;9.91;92.23;101815.52;107182;1250;61700;-75
2022/04/28 20:45:40;;;;;;;5.90;4.50;;;;;;;9.91;92.42;101815.83;107029;1254;60679;-74
2022/04/28 20:48:10;;;;;;;6.40;4.40;;;;;;;9.91;91.70;101817.73;106744;1253;73674;-78
2022/04/28 20:50:41;;;;;;;9.60;4.60;;;;;;;9.89;91.41;101820.64;107177;1251;73684;-72
2022/04/28 20:53:13;;;;;;;5.90;4.50;;;;;;;9.91;91.26;101821.39;107323;1251;69590;-74
2022/04/28 20:55:43;;;;;;;6.30;4.80;;;;;;;9.91;91.49;101823.48;107168;1252;72410;-73
2022/04/28 20:58:12;;;;;;;5.30;4.40;;;;;;;9.87;91.95;101824.73;107094;1252;61688;-74
2022/04/28 21:00:41;;;;;;;5.30;4.20;;;;;;;9.88;91.38;101823.68;107081;1252;61310;-74
2022/04/28 21:03:10;;;;;;;6.40;4.60;;;;;;;9.87;91.51;101822.29;107243;1253;74061;-77
2022/04/28 21:05:39;;;;;;;6.30;4.40;;;;;;;9.92;91.18;101822.05;107195;1254;70104;-76
2022/04/28 21:08:11;;;;;;;6.40;4.40;;;;;;;9.90;91.13;101822.32;107457;1254;67987;-78
2022/04/28 21:10:47;;;;;;;7.20;4.30;;;;;;;9.90;91.18;101827.02;107823;1253;72057;-75
2022/04/28 21:13:41;;;;;;;5.10;3.80;;;;;;;9.92;89.93;101823.59;107294;1252;63052;-74
2022/04/28 21:16:10;;;;;;;5.30;4.50;;;;;;;9.88;89.83;101825.90;107248;1251;60893;-73
2022/04/28 21:18:39;;;;;;;5.40;4.50;;;;;;;9.82;90.58;101825.84;107303;1253;71748;-74
2022/04/28 21:21:08;;;;;;;4.50;4.00;;;;;;;9.85;89.83;101827.78;107088;1252;69416;-71
2022/04/28 21:23:37;;;;;;;5.30;4.10;;;;;;;9.84;90.01;101831.32;107145;1251;70638;-72
2022/04/28 21:26:06;;;;;;;5.80;4.00;;;;;;;9.78;90.04;101831.98;107143;1251;71565;-72
2022/04/28 21:28:36;;;;;;;5.40;3.90;;;;;;;9.80;90.04;101831.89;107109;1253;62242;-73
2022/04/28 21:31:05;;;;;;;4.70;3.80;;;;;;;9.82;89.94;101832.81;107139;1253;60678;-74
2022/04/28 21:33:35;;;;;;;6.00;4.60;;;;;;;9.83;90.00;101831.55;107362;1253;73980;-75
2022/04/28 21:36:07;;;;;;;6.10;4.40;;;;;;;9.81;90.73;101837.55;107226;1252;73775;-75
2022/04/28 21:38:36;;;;;;;5.80;4.50;;;;;;;9.85;90.42;101835.62;107319;1251;70503;-75
2022/04/28 21:41:05;;;;;;;6.00;4.00;;;;;;;9.87;90.12;101837.27;107369;1251;74476;-74
2022/04/28 21:43:34;;;;;;;5.80;4.00;;;;;;;9.82;89.60;101838.37;107144;1253;62085;-75
2022/04/28 21:46:04;;;;;;;6.50;4.20;;;;;;;9.78;89.49;101838.23;106915;1252;60628;-74
2022/04/28 21:48:33;;;;;;;5.40;3.90;;;;;;;9.77;89.94;101843.83;107182;1252;74230;-76
2022/04/28 21:51:21;;;;;;;5.60;4.10;;;;;;;9.78;90.41;101845.88;107155;1252;71818;-74
2022/04/28 21:53:51;;;;;;;5.20;4.00;;;;;;;9.78;90.44;101841.70;107131;1253;67303;-72
2022/04/28 21:56:20;;;;;;;7.00;5.10;;;;;;;9.77;90.45;101844.89;107188;1251;73906;-72
2022/04/28 21:58:49;;;;;;;5.10;4.40;;;;;;;9.74;90.50;101841.23;107154;1251;62306;-73
2022/04/28 22:01:18;;;;;;;7.00;4.80;;;;;;;9.77;90.88;101841.44;107038;1250;61641;-72
2022/04/28 22:12:10;;;;;;;5.70;4.10;;;;;;;9.70;90.98;101834.63;107208;1252;71434;-72
2022/04/28 22:14:39;;;;;;;6.20;4.90;;;;;;;9.71;90.69;101833.23;107151;1251;61216;-74
2022/04/28 22:17:11;;;;;;;5.80;4.50;;;;;;;9.72;90.56;101833.52;107092;1251;59046;-74
2022/04/28 22:19:40;;;;;;;6.10;4.60;;;;;;;9.72;90.05;101833.51;107257;1251;73636;-69
2022/04/28 22:22:11;;;;;;;6.20;4.70;;;;;;;9.74;90.55;101837.55;107084;1253;70336;-70
2022/04/28 22:24:40;;;;;;;7.00;4.70;;;;;;;9.76;90.10;101840.08;107302;1250;69835;-69
2022/04/28 22:27:09;;;;;;;7.30;4.30;;;;;;;9.74;90.30;101836.52;107336;1251;72469;-67
2022/04/28 22:30:08;;;;;;;6.50;4.80;;;;;;;9.72;90.41;101835.58;107287;1251;62164;-71
2022/04/28 22:32:49;;;;;;;7.00;4.60;;;;;;;9.71;90.48;101836.48;107303;1250;60545;-69
2022/04/28 22:35:20;;;;;;;6.70;4.90;;;;;;;9.68;90.52;101837.38;107038;1251;70895;-69
2022/04/28 22:37:51;;;;;;;6.70;5.10;;;;;;;9.69;90.46;101836.45;107246;1251;71766;-70
2022/04/28 22:40:20;;;;;;;6.80;4.70;;;;;;;9.63;91.27;101834.46;107230;1251;70665;-70
2022/04/28 22:42:49;;;;;;;6.80;5.10;;;;;;;9.66;91.33;101832.23;107259;1250;75247;-71
2022/04/28 22:45:18;;;;;;;6.50;4.40;;;;;;;9.69;90.52;101828.29;107270;1251;62545;-72
2022/04/28 22:47:48;;;;;;;7.00;5.10;;;;;;;9.68;90.40;101830.73;107277;1251;59376;-71
2022/04/28 22:50:16;;;;;;;7.70;5.00;;;;;;;9.62;91.01;101829.52;107269;1251;73625;-72
2022/04/28 22:52:46;;;;;;;6.70;4.80;;;;;;;9.65;91.55;101827.60;107209;1251;71190;-73
2022/04/28 22:55:15;;;;;;;7.30;5.20;;;;;;;9.65;91.40;101826.72;107102;1251;70601;-73
2022/04/28 22:57:44;;;;;;;6.50;5.00;;;;;;;9.66;91.20;101826.66;107201;1251;74473;-73
2022/04/28 23:00:15;;;;;;;6.80;4.90;;;;;;;9.68;91.44;101826.27;107271;1251;62081;-72
2022/04/28 23:02:45;;;;;;;5.20;4.40;;;;;;;9.69;91.14;101824.27;107233;1250;60705;-71
2022/04/28 23:05:14;;;;;;;7.50;5.20;;;;;;;9.71;90.99;101828.86;107349;1251;71339;-73
2022/04/28 23:07:44;;;;;;;7.50;4.90;;;;;;;9.69;91.33;101831.04;107344;1251;69606;-72
2022/04/28 23:10:15;;;;;;;7.10;5.30;;;;;;;9.68;91.36;101831.61;107341;1250;66937;-72
2022/04/28 23:12:47;;;;;;;5.40;4.60;;;;;;;9.70;91.34;101836.24;107177;1252;72644;-71
2022/04/28 23:15:17;;;;;;;6.00;4.90;;;;;;;9.72;91.04;101837.52;107308;1251;62141;-71
2022/04/28 23:17:48;;;;;;;7.30;5.00;;;;;;;9.74;90.88;101835.29;107154;1252;60634;-71
2022/04/28 23:20:19;;;;;;;6.30;4.70;;;;;;;9.71;91.20;101832.69;106991;1251;72783;-73
2022/04/28 23:22:49;;;;;;;6.20;4.40;;;;;;;9.72;90.56;101833.88;107332;1251;71414;-73
2022/04/28 23:25:17;;;;;;;5.90;5.10;;;;;;;9.71;90.71;101832.51;107252;1251;68330;-75
2022/04/28 23:27:46;;;;;;;6.40;4.60;;;;;;;9.68;90.87;101834.91;107252;1251;73137;-75
2022/04/28 23:30:15;;;;;;;6.30;4.60;;;;;;;9.71;90.64;101833.58;107755;1250;61126;-73
2022/04/28 23:32:44;;;;;;;6.10;4.80;;;;;;;9.68;90.59;101832.11;107640;1250;60348;-74
2022/04/28 23:40:57;;;;;;;6.30;4.70;;;;;;;9.66;90.00;101831.35;107143;1251;70499;-73
2022/04/28 23:43:30;;;;;;;6.60;4.30;;;;;;;9.65;90.65;101830.56;107273;1250;71423;-75
2022/04/28 23:45:58;;;;;;;6.50;4.90;;;;;;;9.65;90.62;101829.70;107216;1253;61295;-73
2022/04/28 23:48:27;;;;;;;5.30;4.10;;;;;;;9.64;90.63;101826.23;107256;1253;59909;-75
2022/04/28 23:50:56;;;;;;;7.30;4.60;;;;;;;9.66;90.45;101821.13;107356;1251;69902;-74
2022/04/28 23:56:12;;;;;;;5.80;4.80;;;;;;;9.64;91.05;101826.95;107345;1251;69490;-73
2022/04/28 23:58:42;;;;;;;6.20;4.90;;;;;;;9.66;91.06;101829.13;107196;1251;73142;-74
